createdAt,value
2019-03-29T00:00:18.569Z,33.45
2019-03-29T00:02:47.153Z,38.28
2019-03-29T00:05:15.705Z,40.35
2019-03-29T00:07:44.290Z,42.20
2019-03-29T00:10:12.917Z,43.33
2019-03-29T00:12:41.468Z,39.92
2019-03-29T00:15:10.125Z,39.05
2019-03-29T00:17:38.688Z,39.00
2019-03-29T00:20:07.925Z,34.88
2019-03-29T00:22:36.481Z,35.80
2019-03-29T00:25:05.195Z,34.20
2019-03-29T00:27:33.749Z,33.10
2019-03-29T00:30:02.376Z,29.98
2019-03-29T00:32:31.261Z,31.45
2019-03-29T00:35:00.509Z,34.60
2019-03-29T00:37:29.072Z,37.88
2019-03-29T00:39:57.657Z,31.40
2019-03-29T00:42:26.266Z,38.78
2019-03-29T00:44:54.798Z,51.85
2019-03-29T00:47:23.349Z,38.83
2019-03-29T00:49:51.932Z,44.93
2019-03-29T00:52:20.484Z,37.17
2019-03-29T00:54:49.062Z,43.65
2019-03-29T00:57:17.616Z,44.98
2019-03-29T00:59:46.205Z,39.58
2019-03-29T01:02:14.758Z,40.30
2019-03-29T01:04:43.337Z,52.67
2019-03-29T01:07:11.897Z,49.38
2019-03-29T01:09:40.478Z,62.27
2019-03-29T01:12:09.033Z,59.10
2019-03-29T01:14:37.625Z,48.33
2019-03-29T01:17:06.442Z,48.00
2019-03-29T01:19:35.024Z,53.68
2019-03-29T01:22:03.576Z,49.35
2019-03-29T01:24:32.164Z,56.25
2019-03-29T01:27:00.712Z,63.38
2019-03-29T01:29:29.313Z,69.72
2019-03-29T01:31:57.852Z,57.08
2019-03-29T01:34:26.433Z,63.30
2019-03-29T01:36:54.985Z,56.58
2019-03-29T01:39:23.572Z,66.50
2019-03-29T01:41:52.953Z,52.03
2019-03-29T01:44:21.710Z,44.83
2019-03-29T01:46:50.264Z,40.10
2019-03-29T01:49:18.841Z,51.37
2019-03-29T01:51:47.396Z,54.45
2019-03-29T01:54:15.973Z,61.50
2019-03-29T01:56:44.533Z,59.70
2019-03-29T01:59:13.111Z,86.12
2019-03-29T02:01:41.665Z,53.92
2019-03-29T02:04:10.250Z,56.42
2019-03-29T02:06:38.805Z,46.25
2019-03-29T02:09:07.414Z,114.75
2019-03-29T02:11:35.941Z,66.87
2019-03-29T02:14:04.661Z,52.73
2019-03-29T02:16:33.212Z,68.42
2019-03-29T02:19:01.798Z,48.83
2019-03-29T02:21:30.620Z,42.80
2019-03-29T02:23:59.196Z,58.80
2019-03-29T02:26:27.762Z,51.83
2019-03-29T02:28:56.344Z,62.90
2019-03-29T02:31:26.106Z,60.92
2019-03-29T02:33:55.085Z,46.40
2019-03-29T02:36:23.910Z,49.27
2019-03-29T02:38:55.447Z,48.95
2019-03-29T02:41:22.689Z,39.65
2019-03-29T02:43:51.256Z,54.58
2019-03-29T02:46:19.833Z,48.65
2019-03-29T02:48:48.398Z,49.50
2019-03-29T02:51:16.972Z,49.90
2019-03-29T02:53:45.598Z,54.35
2019-03-29T02:56:14.230Z,52.25
2019-03-29T02:58:42.742Z,56.42
2019-03-29T03:01:11.315Z,50.17
2019-03-29T03:03:39.884Z,47.80
2019-03-29T03:06:08.455Z,46.63
2019-03-29T03:08:37.018Z,57.67
2019-03-29T03:11:05.862Z,52.55
2019-03-29T03:13:34.423Z,61.02
2019-03-29T03:16:03.005Z,59.60
2019-03-29T03:18:31.558Z,58.17
2019-03-29T03:21:00.148Z,55.23
2019-03-29T03:23:28.708Z,55.25
2019-03-29T03:25:57.285Z,53.63
2019-03-29T03:28:25.846Z,53.92
2019-03-29T03:30:54.436Z,50.50
2019-03-29T03:33:22.991Z,58.17
2019-03-29T03:35:51.579Z,55.85
2019-03-29T03:38:20.151Z,60.60
2019-03-29T03:40:48.729Z,57.70
2019-03-29T03:43:17.279Z,58.63
2019-03-29T03:45:45.883Z,65.52
2019-03-29T03:48:14.450Z,70.83
2019-03-29T03:50:43.399Z,53.35
2019-03-29T03:53:12.038Z,50.03
2019-03-29T03:55:41.314Z,57.83
2019-03-29T03:58:11.681Z,54.18
2019-03-29T04:00:57.288Z,70.20
2019-03-29T04:03:26.578Z,67.85
2019-03-29T04:05:55.499Z,53.85
2019-03-29T04:08:24.127Z,59.58
2019-03-29T04:10:52.783Z,61.90
2019-03-29T04:13:21.338Z,63.42
2019-03-29T04:15:49.925Z,51.35
2019-03-29T04:18:18.494Z,71.90
2019-03-29T04:20:47.068Z,53.85
2019-03-29T04:23:15.634Z,56.88
2019-03-29T04:25:44.280Z,78.12
2019-03-29T04:28:12.829Z,55.58
2019-03-29T04:30:41.417Z,47.10
2019-03-29T04:33:11.252Z,69.60
2019-03-29T04:35:40.150Z,55.92
2019-03-29T04:38:08.700Z,51.92
2019-03-29T04:40:37.276Z,71.53
2019-03-29T04:43:05.826Z,66.02
2019-03-29T04:45:34.578Z,67.03
2019-03-29T04:48:03.131Z,62.70
2019-03-29T04:50:31.704Z,76.05
2019-03-29T04:53:00.275Z,105.65
2019-03-29T04:55:28.849Z,74.50
2019-03-29T04:57:57.403Z,85.22
2019-03-29T05:00:25.989Z,69.27
2019-03-29T05:02:54.546Z,70.62
2019-03-29T05:05:23.121Z,66.97
2019-03-29T05:07:51.686Z,70.62
2019-03-29T05:10:21.819Z,73.87
2019-03-29T05:12:50.629Z,71.87
2019-03-29T05:15:19.213Z,61.55
2019-03-29T05:17:47.762Z,71.57
2019-03-29T05:20:16.359Z,77.65
2019-03-29T05:22:44.910Z,58.58
2019-03-29T05:25:13.499Z,68.78
2019-03-29T05:27:42.057Z,73.55
2019-03-29T05:30:11.048Z,59.50
2019-03-29T05:32:39.633Z,54.53
2019-03-29T05:35:08.262Z,59.45
2019-03-29T05:37:36.846Z,54.95
2019-03-29T05:40:06.950Z,61.02
2019-03-29T05:42:35.533Z,51.58
2019-03-29T05:45:06.602Z,56.15
2019-03-29T05:47:35.183Z,45.10
2019-03-29T05:50:05.481Z,42.75
2019-03-29T05:52:34.065Z,42.10
2019-03-29T05:55:02.722Z,58.28
2019-03-29T05:57:31.299Z,44.42
2019-03-29T05:59:59.865Z,59.23
2019-03-29T06:02:28.436Z,59.38
2019-03-29T06:04:56.997Z,52.40
2019-03-29T06:07:25.582Z,59.85
2019-03-29T06:09:54.135Z,52.13
2019-03-29T06:12:22.712Z,57.60
2019-03-29T06:14:51.272Z,69.60
2019-03-29T06:17:19.855Z,56.02
2019-03-29T06:19:48.415Z,50.60
2019-03-29T06:22:17.056Z,53.28
2019-03-29T06:24:45.615Z,56.50
2019-03-29T06:27:14.198Z,61.42
2019-03-29T06:29:42.754Z,56.77
2019-03-29T06:32:11.338Z,40.25
2019-03-29T06:34:40.139Z,44.50
2019-03-29T06:37:10.142Z,52.05
2019-03-29T06:39:39.093Z,48.87
2019-03-29T06:42:08.130Z,53.28
2019-03-29T06:44:36.734Z,45.00
2019-03-29T06:47:05.328Z,47.73
2019-03-29T06:49:33.877Z,44.45
2019-03-29T06:52:02.461Z,51.65
2019-03-29T06:54:31.032Z,26.25
2019-03-29T06:56:59.609Z,56.63
2019-03-29T06:59:28.692Z,60.78
2019-03-29T07:01:57.221Z,25.97
2019-03-29T07:04:26.371Z,56.40
2019-03-29T07:06:55.302Z,51.20
2019-03-29T07:09:24.564Z,48.40
2019-03-29T07:11:53.668Z,47.38
2019-03-29T07:14:22.193Z,48.98
2019-03-29T07:16:50.845Z,48.00
2019-03-29T07:19:19.406Z,45.45
2019-03-29T07:21:48.318Z,56.28
2019-03-29T07:24:17.179Z,27.02
2019-03-29T07:26:45.763Z,42.13
2019-03-29T07:29:14.536Z,42.78
2019-03-29T07:31:43.101Z,37.55
2019-03-29T07:34:11.666Z,18.12
2019-03-29T07:36:40.251Z,36.20
2019-03-29T07:39:08.810Z,41.35
2019-03-29T07:41:37.385Z,24.92
2019-03-29T07:44:05.941Z,33.65
2019-03-29T07:46:34.523Z,32.03
2019-03-29T07:49:03.077Z,27.37
2019-03-29T07:51:31.721Z,17.35
2019-03-29T07:54:00.277Z,31.30
2019-03-29T07:56:28.853Z,16.55
2019-03-29T07:58:57.409Z,18.80
2019-03-29T08:01:25.980Z,15.50
2019-03-29T08:03:54.549Z,13.70
2019-03-29T08:06:23.107Z,10.05
2019-03-29T08:08:51.677Z,9.83
2019-03-29T08:11:26.057Z,12.55
2019-03-29T08:13:50.476Z,8.55
2019-03-29T08:16:19.014Z,6.35
2019-03-29T08:18:47.590Z,9.05
2019-03-29T08:21:16.142Z,9.03
2019-03-29T08:23:44.717Z,11.08
2019-03-29T08:26:13.264Z,7.60
2019-03-29T08:28:41.906Z,7.25
2019-03-29T08:31:10.394Z,8.45
2019-03-29T08:33:38.978Z,10.75
2019-03-29T08:36:07.525Z,7.37
2019-03-29T08:38:36.107Z,11.20
2019-03-29T08:41:04.669Z,3.83
2019-03-29T08:43:33.237Z,2.70
2019-03-29T08:46:01.855Z,1.50
2019-03-29T08:48:30.421Z,3.37
2019-03-29T08:50:58.974Z,2.10
2019-03-29T08:53:27.708Z,1.50
2019-03-29T08:55:56.298Z,1.32
2019-03-29T08:58:24.873Z,2.83
2019-03-29T09:00:53.428Z,1.10
2019-03-29T09:03:22.015Z,2.12
2019-03-29T09:05:52.006Z,1.05
2019-03-29T09:08:20.588Z,4.28
2019-03-29T09:10:49.142Z,2.35
2019-03-29T09:13:17.726Z,4.60
2019-03-29T09:15:46.274Z,4.08
2019-03-29T09:18:14.849Z,3.17
2019-03-29T09:20:43.402Z,1.47
2019-03-29T09:23:12.621Z,5.33
2019-03-29T09:25:41.221Z,5.33
2019-03-29T09:28:09.788Z,1.30
2019-03-29T09:30:38.345Z,3.92
2019-03-29T09:33:06.917Z,3.95
2019-03-29T09:35:35.475Z,4.55
2019-03-29T09:38:04.056Z,3.87
2019-03-29T09:40:32.601Z,5.45
2019-03-29T09:43:08.771Z,4.78
2019-03-29T09:45:31.376Z,4.42
2019-03-29T09:47:59.950Z,7.20
2019-03-29T09:50:28.503Z,4.85
2019-03-29T09:53:00.781Z,5.87
2019-03-29T09:55:27.282Z,3.87
2019-03-29T09:57:56.120Z,4.78
2019-03-29T10:00:24.673Z,4.83
2019-03-29T10:02:53.371Z,3.30
2019-03-29T10:05:22.021Z,3.20
2019-03-29T10:07:50.646Z,3.50
2019-03-29T10:10:19.264Z,4.37
2019-03-29T10:12:47.843Z,4.53
2019-03-29T10:15:16.397Z,2.90
2019-03-29T10:17:45.039Z,3.15
2019-03-29T10:20:13.730Z,4.28
2019-03-29T10:22:42.302Z,3.42
2019-03-29T10:25:19.317Z,3.05
2019-03-29T10:27:41.228Z,3.70
2019-03-29T10:30:10.413Z,3.55
2019-03-29T10:32:38.985Z,4.58
2019-03-29T10:35:07.675Z,2.90
2019-03-29T10:37:36.245Z,3.70
2019-03-29T10:40:06.439Z,3.10
2019-03-29T10:42:34.985Z,4.03
2019-03-29T10:45:03.697Z,4.33
2019-03-29T10:47:42.996Z,4.95
2019-03-29T10:50:02.550Z,3.92
2019-03-29T10:52:31.106Z,4.72
2019-03-29T10:54:59.929Z,3.20
2019-03-29T10:57:28.518Z,3.90
2019-03-29T10:59:57.081Z,4.17
2019-03-29T11:02:25.634Z,5.70
2019-03-29T11:04:54.219Z,3.65
2019-03-29T11:07:22.770Z,3.87
2019-03-29T11:09:51.341Z,3.85
2019-03-29T11:12:19.894Z,4.25
2019-03-29T11:14:48.465Z,4.15
2019-03-29T11:17:17.022Z,5.08
2019-03-29T11:19:45.608Z,4.97
2019-03-29T11:22:14.166Z,6.70
2019-03-29T11:24:42.740Z,4.60
2019-03-29T11:27:11.362Z,5.70
2019-03-29T11:29:39.932Z,4.80
2019-03-29T11:32:08.649Z,5.75
2019-03-29T11:34:37.427Z,4.47
2019-03-29T11:37:06.054Z,4.97
2019-03-29T11:39:34.719Z,4.55
2019-03-29T11:42:03.754Z,4.03
2019-03-29T11:44:33.114Z,5.00
2019-03-29T11:47:02.744Z,4.03
2019-03-29T11:49:31.643Z,5.85
2019-03-29T11:52:00.169Z,4.90
2019-03-29T11:54:28.745Z,6.47
2019-03-29T11:56:58.024Z,5.40
2019-03-29T11:59:26.643Z,6.33
2019-03-29T12:01:55.193Z,5.12
2019-03-29T12:04:23.769Z,4.17
2019-03-29T12:06:52.323Z,5.30
2019-03-29T12:09:20.965Z,3.62
2019-03-29T12:11:49.513Z,5.05
2019-03-29T12:14:18.103Z,5.25
2019-03-29T12:16:46.636Z,4.60
2019-03-29T12:19:17.291Z,5.95
2019-03-29T12:21:45.849Z,4.60
2019-03-29T12:24:14.422Z,5.33
2019-03-29T12:26:42.969Z,3.47
2019-03-29T12:29:11.546Z,5.15
2019-03-29T12:31:40.102Z,3.77
2019-03-29T12:34:08.679Z,6.28
2019-03-29T12:36:37.234Z,4.00
2019-03-29T12:39:07.250Z,5.25
2019-03-29T12:41:35.806Z,6.53
2019-03-29T12:44:04.509Z,5.67
2019-03-29T12:46:33.070Z,6.00
2019-03-29T12:49:01.649Z,6.12
2019-03-29T12:51:30.289Z,3.62
2019-03-29T12:53:58.873Z,6.33
2019-03-29T12:56:27.427Z,5.58
2019-03-29T12:58:56.006Z,6.25
2019-03-29T13:01:38.557Z,5.33
2019-03-29T13:03:54.788Z,6.60
2019-03-29T13:06:23.339Z,5.53
2019-03-29T13:08:51.914Z,5.53
2019-03-29T13:11:20.474Z,5.15
2019-03-29T13:13:49.063Z,4.65
2019-03-29T13:16:17.615Z,3.40
2019-03-29T13:18:46.342Z,4.67
2019-03-29T13:21:14.985Z,4.30
2019-03-29T13:23:43.537Z,5.60
2019-03-29T13:26:12.190Z,3.80
2019-03-29T13:28:40.738Z,5.80
2019-03-29T13:31:09.386Z,7.42
2019-03-29T13:33:37.952Z,6.83
2019-03-29T13:36:07.671Z,8.60
2019-03-29T13:38:36.226Z,5.45
2019-03-29T13:41:07.004Z,5.75
2019-03-29T13:43:35.002Z,9.38
2019-03-29T13:46:03.576Z,6.05
2019-03-29T13:48:32.134Z,6.28
2019-03-29T13:51:00.720Z,8.70
2019-03-29T13:53:29.277Z,7.75
2019-03-29T13:55:58.218Z,6.83
2019-03-29T13:58:26.770Z,6.05
2019-03-29T14:00:55.349Z,9.50
2019-03-29T14:03:23.909Z,8.48
2019-03-29T14:05:52.490Z,7.87
2019-03-29T14:08:21.054Z,6.60
2019-03-29T14:10:49.638Z,6.70
2019-03-29T14:13:19.945Z,6.97
2019-03-29T14:15:48.654Z,8.05
2019-03-29T14:18:17.281Z,7.10
2019-03-29T14:20:45.853Z,6.20
2019-03-29T14:23:14.405Z,7.28
2019-03-29T14:25:42.994Z,5.37
2019-03-29T14:28:11.549Z,6.72
2019-03-29T14:30:40.202Z,7.40
2019-03-29T14:33:08.760Z,7.70
2019-03-29T14:35:37.476Z,9.55
2019-03-29T14:38:06.005Z,7.85
2019-03-29T14:40:35.438Z,5.05
2019-03-29T14:43:04.065Z,7.22
2019-03-29T14:45:32.731Z,8.33
2019-03-29T14:48:02.635Z,8.13
2019-03-29T14:50:31.693Z,6.78
2019-03-29T14:55:36.694Z,7.00
2019-03-29T14:58:05.240Z,8.35
2019-03-29T15:00:42.335Z,7.42
2019-03-29T15:03:11.222Z,7.90
2019-03-29T15:05:40.155Z,6.95
2019-03-29T15:08:08.777Z,7.12
2019-03-29T15:10:37.368Z,7.75
2019-03-29T15:13:06.403Z,7.00
2019-03-29T15:15:35.122Z,8.55
2019-03-29T15:18:03.741Z,6.22
2019-03-29T15:20:32.314Z,9.35
2019-03-29T15:23:00.875Z,7.75
2019-03-29T15:25:29.463Z,11.08
2019-03-29T15:27:58.745Z,7.30
2019-03-29T15:30:27.498Z,10.38
2019-03-29T15:32:56.532Z,9.08
2019-03-29T15:35:25.656Z,5.42
2019-03-29T15:37:54.320Z,5.85
2019-03-29T15:40:22.976Z,6.97
2019-03-29T15:42:51.465Z,7.40
2019-03-29T15:45:21.971Z,9.00
2019-03-29T15:47:50.512Z,7.80
2019-03-29T15:50:19.093Z,8.33
2019-03-29T15:52:47.658Z,8.23
2019-03-29T15:55:16.238Z,7.95
2019-03-29T15:57:44.886Z,6.60
2019-03-29T16:00:14.207Z,8.03
2019-03-29T16:02:42.752Z,8.05
2019-03-29T16:05:11.511Z,9.38
2019-03-29T16:07:40.072Z,10.55
2019-03-29T16:10:08.878Z,8.20
2019-03-29T16:12:37.465Z,6.58
2019-03-29T16:15:07.052Z,7.47
2019-03-29T16:17:35.636Z,10.58
2019-03-29T16:20:05.845Z,15.75
2019-03-29T16:22:34.972Z,10.10
2019-03-29T16:25:07.753Z,5.28
2019-03-29T16:27:36.775Z,7.17
2019-03-29T16:30:09.016Z,5.22
2019-03-29T16:32:38.285Z,7.97
2019-03-29T16:35:08.220Z,11.20
2019-03-29T16:37:36.773Z,11.33
2019-03-29T16:40:08.426Z,8.35
2019-03-29T16:42:37.021Z,5.92
2019-03-29T16:45:07.512Z,7.37
2019-03-29T16:47:36.096Z,7.17
2019-03-29T16:50:07.081Z,9.20
2019-03-29T16:52:35.653Z,5.03
2019-03-29T16:55:13.026Z,11.15
2019-03-29T16:57:36.864Z,9.73
2019-03-29T17:00:12.004Z,5.12
2019-03-29T17:02:38.981Z,6.08
2019-03-29T17:05:08.286Z,6.10
2019-03-29T17:07:36.872Z,8.60
2019-03-29T17:10:08.842Z,9.43
2019-03-29T17:12:37.422Z,9.03
2019-03-29T17:15:06.519Z,10.30
2019-03-29T17:17:35.574Z,9.88
2019-03-29T17:20:08.187Z,8.33
2019-03-29T17:22:37.227Z,7.55
2019-03-29T17:25:07.505Z,8.68
2019-03-29T17:27:36.093Z,13.40
2019-03-29T17:30:07.695Z,9.63
2019-03-29T17:32:36.269Z,8.48
2019-03-29T17:35:06.262Z,8.45
2019-03-29T17:37:34.858Z,11.65
2019-03-29T17:40:04.721Z,8.48
2019-03-29T17:42:33.262Z,9.53
2019-03-29T17:45:01.912Z,13.70
2019-03-29T17:47:30.501Z,11.97
2019-03-29T17:50:00.237Z,11.33
2019-03-29T17:52:29.078Z,13.38
2019-03-29T17:54:57.641Z,15.32
2019-03-29T17:57:26.221Z,11.05
2019-03-29T17:59:54.773Z,9.65
2019-03-29T18:02:23.617Z,15.50
2019-03-29T18:04:52.179Z,14.45
2019-03-29T18:07:20.749Z,16.27
2019-03-29T18:09:49.301Z,11.97
2019-03-29T18:12:17.894Z,12.68
2019-03-29T18:14:46.459Z,13.15
2019-03-29T18:17:15.079Z,11.65
2019-03-29T18:19:43.642Z,10.93
2019-03-29T18:22:12.222Z,12.43
2019-03-29T18:24:40.780Z,9.73
2019-03-29T18:27:09.359Z,13.18
2019-03-29T18:29:37.923Z,11.93
2019-03-29T18:32:10.942Z,11.60
2019-03-29T18:34:41.629Z,14.13
2019-03-29T18:37:10.846Z,10.78
2019-03-29T18:39:39.478Z,9.58
2019-03-29T18:42:08.059Z,13.75
2019-03-29T18:44:36.667Z,78.07
2019-03-29T18:47:05.246Z,83.78
2019-03-29T18:49:33.810Z,106.67
2019-03-29T18:52:02.387Z,45.75
2019-03-29T18:54:30.950Z,34.45
2019-03-29T18:56:59.593Z,13.00
2019-03-29T18:59:28.157Z,16.50
2019-03-29T19:01:56.743Z,13.90
2019-03-29T19:04:25.302Z,10.80
2019-03-29T19:06:53.944Z,17.70
2019-03-29T19:09:22.506Z,11.97
2019-03-29T19:11:51.148Z,11.18
2019-03-29T19:14:19.761Z,15.18
2019-03-29T19:16:58.966Z,13.85
2019-03-29T19:19:18.564Z,16.30
2019-03-29T19:21:47.169Z,27.22
2019-03-29T19:24:15.723Z,29.05
2019-03-29T19:26:44.302Z,13.45
2019-03-29T19:29:12.852Z,16.95
2019-03-29T19:31:41.684Z,19.45
2019-03-29T19:34:10.270Z,24.23
2019-03-29T19:36:38.828Z,16.95
2019-03-29T19:39:08.037Z,13.93
2019-03-29T19:41:36.597Z,14.13
2019-03-29T19:44:05.177Z,12.28
2019-03-29T19:46:33.738Z,16.93
2019-03-29T19:49:02.313Z,17.32
2019-03-29T19:51:30.880Z,16.52
2019-03-29T19:54:07.246Z,17.40
2019-03-29T19:56:29.674Z,15.25
2019-03-29T19:58:58.257Z,16.90
2019-03-29T20:01:26.859Z,18.52
2019-03-29T20:03:55.401Z,19.35
2019-03-29T20:06:25.732Z,18.30
2019-03-29T20:08:54.196Z,15.45
2019-03-29T20:11:22.757Z,15.93
2019-03-29T20:13:51.604Z,18.40
2019-03-29T20:16:20.154Z,16.15
2019-03-29T20:18:48.741Z,316.55
2019-03-29T20:21:17.299Z,41.58
2019-03-29T20:23:45.881Z,20.48
2019-03-29T20:26:14.450Z,16.30
2019-03-29T20:28:43.034Z,27.77
2019-03-29T20:31:11.600Z,37.13
2019-03-29T20:33:40.346Z,18.92
2019-03-29T20:36:08.928Z,18.70
2019-03-29T20:38:37.481Z,17.48
2019-03-29T20:41:06.041Z,16.90
2019-03-29T20:43:34.622Z,18.95
2019-03-29T20:46:03.185Z,17.95
2019-03-29T20:48:31.769Z,23.77
2019-03-29T20:51:00.340Z,23.83
2019-03-29T20:53:28.914Z,17.42
2019-03-29T20:55:58.444Z,17.10
2019-03-29T20:58:27.158Z,19.37
2019-03-29T21:00:55.717Z,20.77
2019-03-29T21:03:24.320Z,21.30
2019-03-29T21:05:52.865Z,24.60
2019-03-29T21:08:21.444Z,18.32
2019-03-29T21:10:56.230Z,20.72
2019-03-29T21:13:20.238Z,22.40
2019-03-29T21:15:48.802Z,24.55
2019-03-29T21:18:17.717Z,22.02
2019-03-29T21:20:46.353Z,22.10
2019-03-29T21:23:14.944Z,18.12
2019-03-29T21:25:43.505Z,19.32
2019-03-29T21:28:12.090Z,23.75
2019-03-29T21:30:40.684Z,21.37
2019-03-29T21:33:09.224Z,19.15
2019-03-29T21:35:37.785Z,22.05
2019-03-29T21:38:06.373Z,23.98
2019-03-29T21:40:34.925Z,22.87
2019-03-29T21:43:03.514Z,33.00
2019-03-29T21:45:32.142Z,26.02
2019-03-29T21:48:09.972Z,27.17
2019-03-29T21:50:30.943Z,24.95
2019-03-29T21:52:59.516Z,28.10
2019-03-29T21:55:28.072Z,24.65
2019-03-29T21:57:56.662Z,30.32
2019-03-29T22:00:25.228Z,26.37
2019-03-29T22:02:53.797Z,30.43
2019-03-29T22:05:22.393Z,31.65
2019-03-29T22:07:50.955Z,30.15
2019-03-29T22:10:19.537Z,32.58
2019-03-29T22:12:48.101Z,35.40
2019-03-29T22:15:16.927Z,29.12
2019-03-29T22:17:45.477Z,28.85
2019-03-29T22:20:14.072Z,32.88
2019-03-29T22:22:42.624Z,29.87
2019-03-29T22:25:11.329Z,30.02
2019-03-29T22:27:39.893Z,31.48
2019-03-29T22:30:10.851Z,24.95
2019-03-29T22:32:39.420Z,32.00
2019-03-29T22:35:08.425Z,27.00
2019-03-29T22:37:37.149Z,32.38
2019-03-29T22:40:07.882Z,31.77
2019-03-29T22:42:36.435Z,31.23
2019-03-29T22:45:10.200Z,25.82
2019-03-29T22:47:38.759Z,25.30
2019-03-29T22:50:07.882Z,27.77
2019-03-29T22:52:36.439Z,35.58
2019-03-29T22:55:07.167Z,23.52
2019-03-29T22:57:35.721Z,32.78
2019-03-29T23:00:24.049Z,54.80
2019-03-29T23:02:52.609Z,40.58
2019-03-29T23:05:21.180Z,38.05
2019-03-29T23:07:49.746Z,29.37
2019-03-29T23:10:18.335Z,27.10
2019-03-29T23:12:47.142Z,26.93
2019-03-29T23:15:15.687Z,28.23
2019-03-29T23:17:44.238Z,26.42
2019-03-29T23:20:12.969Z,23.57
2019-03-29T23:22:41.522Z,23.80
2019-03-29T23:25:10.181Z,25.77
2019-03-29T23:27:38.741Z,27.62
2019-03-29T23:30:08.055Z,27.80
2019-03-29T23:32:36.613Z,25.77
2019-03-29T23:35:07.254Z,24.07
2019-03-29T23:37:35.804Z,24.18
2019-03-29T23:40:04.925Z,24.27
2019-03-29T23:42:33.484Z,30.92
2019-03-29T23:45:02.066Z,30.75
2019-03-29T23:47:30.631Z,26.30
2019-03-29T23:49:59.221Z,22.73
2019-03-29T23:52:27.782Z,21.17
2019-03-29T23:54:56.358Z,21.42
2019-03-29T23:57:24.922Z,25.25
2019-03-29T23:59:53.511Z,22.98
